createdAt,value
2022-12-27T00:29:02.115Z,0
2022-12-27T00:29:42.548Z,0
2022-12-27T00:30:23.301Z,0
2022-12-27T00:31:03.895Z,0
2022-12-27T00:31:44.417Z,0
2022-12-27T00:32:25.011Z,0
2022-12-27T00:33:05.425Z,0
2022-12-27T00:33:46.005Z,0
2022-12-27T00:34:26.459Z,0
2022-12-27T00:35:07.004Z,0
2022-12-27T00:41:12.213Z,0
2022-12-27T00:41:52.679Z,0
2022-12-27T00:42:33.147Z,0
2022-12-27T00:43:13.676Z,0
2022-12-27T00:43:54.223Z,0
2022-12-27T00:44:34.734Z,0
2022-12-27T00:45:15.200Z,0
2022-12-27T00:45:55.834Z,0
2022-12-27T00:46:36.223Z,0
2022-12-27T00:47:16.733Z,0
2022-12-27T00:54:01.963Z,0
2022-12-27T00:54:42.452Z,0
2022-12-27T00:55:22.986Z,0
2022-12-27T00:56:03.468Z,0
2022-12-27T00:56:44.076Z,0
2022-12-27T00:57:24.513Z,0
2022-12-27T00:58:05.163Z,0
2022-12-27T00:58:45.605Z,0
2022-12-27T00:59:26.019Z,0
2022-12-27T01:00:10.272Z,0
2022-12-27T01:06:51.934Z,0
2022-12-27T01:07:32.463Z,0
2022-12-27T01:08:12.973Z,0
2022-12-27T01:08:53.463Z,0
2022-12-27T01:09:34.027Z,0
2022-12-27T01:10:14.497Z,0
2022-12-27T01:10:54.971Z,0
2022-12-27T01:11:35.453Z,0
2022-12-27T01:12:15.998Z,0
2022-12-27T01:12:57.402Z,0
2022-12-27T01:13:36.926Z,0
2022-12-27T01:20:22.072Z,0
2022-12-27T01:21:02.568Z,0
2022-12-27T01:21:43.038Z,0
2022-12-27T01:24:56.898Z,0
2022-12-27T01:25:37.306Z,0
2022-12-27T01:26:17.790Z,0
2022-12-27T01:26:58.309Z,0
2022-12-27T01:27:38.790Z,0
2022-12-27T01:28:19.258Z,0
2022-12-27T01:28:59.749Z,0
2022-12-27T01:29:40.278Z,0
2022-12-27T01:30:20.755Z,0
2022-12-27T01:31:01.273Z,0
2022-12-27T01:31:41.806Z,0
2022-12-27T01:38:26.748Z,0
2022-12-27T01:39:07.296Z,0
2022-12-27T01:39:47.805Z,0
2022-12-27T01:40:28.276Z,0
2022-12-27T01:41:08.815Z,0
2022-12-27T01:41:49.299Z,0
2022-12-27T01:42:29.823Z,0
2022-12-27T01:43:10.305Z,0
2022-12-27T01:43:50.860Z,0
2022-12-27T01:44:31.319Z,0
2022-12-27T01:51:16.383Z,0
2022-12-27T01:51:56.893Z,0
2022-12-27T01:52:37.412Z,0
2022-12-27T01:53:17.899Z,0
2022-12-27T01:53:58.398Z,0
2022-12-27T01:54:38.907Z,0
2022-12-27T01:55:19.477Z,0
2022-12-27T01:55:59.921Z,0
2022-12-27T01:56:40.410Z,0
2022-12-27T01:57:20.905Z,0
2022-12-27T01:58:01.404Z,0
2022-12-27T02:04:46.443Z,0
2022-12-27T02:05:26.941Z,0
2022-12-27T02:06:07.449Z,0
2022-12-27T02:06:48.032Z,0
2022-12-27T02:07:28.453Z,0
2022-12-27T02:08:08.923Z,0
2022-12-27T02:08:49.423Z,0
2022-12-27T02:09:29.928Z,0
2022-12-27T02:10:50.938Z,0
2022-12-27T02:11:31.418Z,0
2022-12-27T02:18:16.456Z,0
2022-12-27T02:18:56.961Z,0
2022-12-27T02:19:37.490Z,0
2022-12-27T02:20:18.011Z,0
2022-12-27T02:20:58.505Z,0
2022-12-27T02:21:38.974Z,0
2022-12-27T02:22:19.473Z,0
2022-12-27T02:23:00.046Z,0
2022-12-27T02:23:40.535Z,0
2022-12-27T02:24:21.051Z,0
2022-12-27T02:25:01.549Z,0
2022-12-27T02:31:46.638Z,0
2022-12-27T02:32:27.165Z,0
2022-12-27T02:33:07.677Z,0
2022-12-27T02:33:48.122Z,0
2022-12-27T02:34:28.630Z,0
2022-12-27T02:35:09.163Z,0
2022-12-27T02:35:49.685Z,0
2022-12-27T02:36:30.201Z,0
2022-12-27T02:37:10.696Z,0
2022-12-27T02:37:51.203Z,0
2022-12-27T02:38:31.764Z,0
2022-12-27T02:45:16.794Z,0
2022-12-27T02:45:57.313Z,0
2022-12-27T02:46:37.881Z,0
2022-12-27T02:47:18.263Z,0
2022-12-27T02:47:58.762Z,0
2022-12-27T02:48:39.268Z,0
2022-12-27T02:49:19.749Z,0
2022-12-27T02:50:00.259Z,0
2022-12-27T02:50:40.780Z,0
2022-12-27T02:51:21.264Z,0
2022-12-27T02:52:01.783Z,0
2022-12-27T02:58:07.077Z,0
2022-12-27T02:58:47.562Z,0
2022-12-27T02:59:28.089Z,0
2022-12-27T03:00:08.576Z,0
2022-12-27T03:00:49.018Z,0
2022-12-27T03:01:29.627Z,0
2022-12-27T03:02:10.134Z,0
2022-12-27T03:02:51.237Z,0
2022-12-27T03:03:31.761Z,0
2022-12-27T03:10:16.734Z,0
2022-12-27T03:10:57.256Z,0
2022-12-27T03:11:37.757Z,0
2022-12-27T03:12:18.228Z,0
2022-12-27T03:12:58.752Z,0
2022-12-27T03:13:39.251Z,0
2022-12-27T03:14:19.715Z,0
2022-12-27T03:15:00.241Z,0
2022-12-27T03:15:40.756Z,0
2022-12-27T03:19:09.835Z,0
2022-12-27T03:19:50.170Z,0
2022-12-27T03:20:30.636Z,0
2022-12-27T03:21:11.105Z,0
2022-12-27T03:21:51.631Z,0
2022-12-27T03:22:32.146Z,0
2022-12-27T03:23:12.634Z,0
2022-12-27T03:23:53.134Z,0
2022-12-27T03:24:33.631Z,0
2022-12-27T03:25:14.092Z,0
2022-12-27T03:25:54.596Z,0
2022-12-27T03:32:39.533Z,0
2022-12-27T03:33:19.992Z,0
2022-12-27T03:34:00.547Z,0
2022-12-27T03:34:41.070Z,0
2022-12-27T03:35:21.532Z,0
2022-12-27T03:36:02.007Z,0
2022-12-27T03:36:42.501Z,0
2022-12-27T03:37:22.975Z,0
2022-12-27T03:38:03.479Z,0
2022-12-27T03:38:43.975Z,0
2022-12-27T03:39:24.458Z,0
2022-12-27T03:46:09.506Z,0
2022-12-27T03:46:49.828Z,0
2022-12-27T03:47:30.299Z,0
2022-12-27T03:48:10.795Z,0
2022-12-27T03:48:51.285Z,0
2022-12-27T03:49:31.786Z,0
2022-12-27T03:50:12.282Z,0
2022-12-27T03:50:52.794Z,0
2022-12-27T03:51:33.375Z,0
2022-12-27T03:52:13.817Z,0
2022-12-27T03:52:54.288Z,0
2022-12-27T04:00:19.733Z,0
2022-12-27T04:01:00.266Z,0
2022-12-27T04:01:40.750Z,0
2022-12-27T04:02:21.443Z,0
2022-12-27T04:03:01.736Z,0
2022-12-27T04:03:42.191Z,0
2022-12-27T04:05:03.131Z,0
2022-12-27T04:05:43.615Z,0
2022-12-27T04:06:24.191Z,0
2022-12-27T04:13:49.648Z,0
2022-12-27T04:14:30.138Z,0
2022-12-27T04:15:10.706Z,0
2022-12-27T04:15:51.232Z,0
2022-12-27T04:16:31.682Z,0
2022-12-27T04:17:12.184Z,0
2022-12-27T04:17:52.728Z,0
2022-12-27T04:18:33.271Z,0
2022-12-27T04:19:13.744Z,0
2022-12-27T04:19:54.264Z,0
2022-12-27T04:27:19.693Z,0
2022-12-27T04:28:00.227Z,0
2022-12-27T04:28:40.714Z,0
2022-12-27T04:29:21.214Z,0
2022-12-27T04:30:01.651Z,0
2022-12-27T04:30:42.154Z,0
2022-12-27T04:31:22.765Z,0
2022-12-27T04:32:03.143Z,0
2022-12-27T04:32:43.685Z,0
2022-12-27T04:33:24.189Z,0
2022-12-27T04:34:04.670Z,0
2022-12-27T04:40:49.667Z,0
2022-12-27T04:41:30.156Z,0
2022-12-27T04:42:10.651Z,0
2022-12-27T04:42:51.197Z,0
2022-12-27T04:43:31.617Z,0
2022-12-27T04:44:12.164Z,0
2022-12-27T04:44:52.679Z,0
2022-12-27T04:45:33.175Z,0
2022-12-27T04:46:13.697Z,0
2022-12-27T04:46:54.112Z,0
2022-12-27T04:47:34.734Z,0
2022-12-27T04:54:19.589Z,0
2022-12-27T04:55:00.105Z,0
2022-12-27T04:55:40.597Z,0
2022-12-27T04:56:21.127Z,0
2022-12-27T04:59:34.832Z,0
2022-12-27T05:00:15.282Z,0
2022-12-27T05:00:55.731Z,0
2022-12-27T05:01:36.252Z,0
2022-12-27T05:02:16.762Z,0
2022-12-27T05:02:57.277Z,0
2022-12-27T05:03:37.738Z,0
2022-12-27T05:04:18.216Z,0
2022-12-27T05:04:58.694Z,0
2022-12-27T05:05:39.191Z,0
2022-12-27T05:06:19.708Z,0
2022-12-27T05:13:04.696Z,0
2022-12-27T05:13:45.190Z,0
2022-12-27T05:14:25.695Z,0
2022-12-27T05:15:06.213Z,0
2022-12-27T05:15:46.763Z,0
2022-12-27T05:16:27.197Z,0
2022-12-27T05:17:07.645Z,0
2022-12-27T05:17:48.179Z,0
2022-12-27T05:18:28.659Z,0
2022-12-27T05:19:09.159Z,0
2022-12-27T05:19:49.667Z,0
2022-12-27T05:26:34.639Z,0
2022-12-27T05:27:15.238Z,0
2022-12-27T05:27:55.704Z,0
2022-12-27T05:28:36.172Z,0
2022-12-27T05:29:16.679Z,0
2022-12-27T05:29:57.144Z,0
2022-12-27T05:30:37.641Z,0
2022-12-27T05:31:18.122Z,0
2022-12-27T05:31:58.595Z,0
2022-12-27T05:32:39.034Z,0
2022-12-27T05:33:19.558Z,0
2022-12-27T05:40:04.597Z,0
2022-12-27T05:40:45.000Z,0
2022-12-27T05:41:25.496Z,0
2022-12-27T05:42:46.507Z,0
2022-12-27T05:43:27.044Z,0
2022-12-27T05:44:07.888Z,0
2022-12-27T05:44:48.116Z,0
2022-12-27T05:45:28.601Z,0
2022-12-27T05:46:09.070Z,0
2022-12-27T05:46:49.640Z,0
2022-12-27T05:52:14.955Z,0
2022-12-27T05:52:55.426Z,0
2022-12-27T05:53:35.899Z,0
2022-12-27T06:31:39.658Z,0
2022-12-27T06:32:19.916Z,0
2022-12-27T06:33:00.424Z,0
2022-12-27T06:33:40.948Z,0
2022-12-27T06:34:21.440Z,0
2022-12-27T06:35:02.021Z,0
2022-12-27T06:35:43.509Z,0
2022-12-27T06:36:24.020Z,0
2022-12-27T06:37:04.551Z,0
2022-12-27T06:43:49.746Z,0
2022-12-27T06:44:30.250Z,0
2022-12-27T06:45:10.740Z,0
2022-12-27T06:45:51.315Z,0
2022-12-27T06:46:32.525Z,0
2022-12-27T06:47:12.996Z,0
2022-12-27T06:47:53.560Z,0
2022-12-27T06:48:34.004Z,0
2022-12-27T06:49:15.497Z,0
2022-12-27T06:54:39.497Z,0
2022-12-27T06:55:19.983Z,0
2022-12-27T06:56:00.501Z,0
2022-12-27T06:56:40.973Z,0
2022-12-27T06:57:21.505Z,0
2022-12-27T06:58:02.016Z,4
2022-12-27T06:58:42.469Z,4
2022-12-27T06:59:23.060Z,0
2022-12-27T07:00:03.528Z,0
2022-12-27T07:00:44.048Z,0
2022-12-27T07:01:24.643Z,4
2022-12-27T07:07:29.776Z,4
2022-12-27T07:08:10.982Z,4
2022-12-27T07:08:51.531Z,4
2022-12-27T07:09:32.015Z,4
2022-12-27T07:10:13.408Z,4
2022-12-27T07:10:53.912Z,4
2022-12-27T07:11:34.449Z,4
2022-12-27T07:18:19.555Z,16
2022-12-27T07:19:00.089Z,16
2022-12-27T07:19:40.659Z,16
2022-12-27T07:20:21.075Z,16
2022-12-27T07:21:01.603Z,16
2022-12-27T07:21:42.120Z,20
2022-12-27T07:22:23.045Z,24
2022-12-27T07:23:03.571Z,24
2022-12-27T07:23:44.147Z,28
2022-12-27T07:24:24.527Z,28
2022-12-27T07:31:09.640Z,48
2022-12-27T07:31:50.251Z,52
2022-12-27T07:32:30.707Z,52
2022-12-27T07:33:11.255Z,56
2022-12-27T07:33:51.771Z,56
2022-12-27T07:34:32.275Z,60
2022-12-27T07:35:12.777Z,60
2022-12-27T07:36:33.988Z,64
2022-12-27T07:37:14.478Z,72
2022-12-27T07:43:59.461Z,104
2022-12-27T07:44:40.838Z,108
2022-12-27T07:45:21.389Z,112
2022-12-27T07:46:01.949Z,116
2022-12-27T07:46:42.383Z,120
2022-12-27T07:47:22.883Z,128
2022-12-27T07:48:03.388Z,132
2022-12-27T07:48:43.886Z,136
2022-12-27T07:49:24.417Z,144
2022-12-27T07:55:29.799Z,204
2022-12-27T07:56:10.323Z,212
2022-12-27T07:56:51.375Z,216
2022-12-27T07:57:31.883Z,224
2022-12-27T07:58:12.339Z,236
2022-12-27T07:58:52.864Z,248
2022-12-27T07:59:33.338Z,256
2022-12-27T08:00:13.844Z,248
2022-12-27T08:00:54.420Z,244
2022-12-27T08:06:59.347Z,236
2022-12-27T08:07:39.859Z,244
2022-12-27T08:08:20.348Z,260
2022-12-27T08:09:00.854Z,268
2022-12-27T08:09:41.630Z,280
2022-12-27T08:10:22.144Z,292
2022-12-27T08:11:05.632Z,296
2022-12-27T08:11:43.158Z,304
2022-12-27T08:12:23.676Z,308
2022-12-27T08:13:04.199Z,304
2022-12-27T08:13:44.787Z,292
2022-12-27T08:19:49.489Z,340
2022-12-27T08:20:30.159Z,336
2022-12-27T08:21:10.658Z,348
2022-12-27T08:21:51.211Z,360
2022-12-27T08:22:31.717Z,384
2022-12-27T08:23:12.262Z,404
2022-12-27T08:23:52.709Z,420
2022-12-27T08:24:33.177Z,464
2022-12-27T08:25:13.682Z,500
2022-12-27T08:25:54.178Z,504
2022-12-27T08:26:34.699Z,504
2022-12-27T08:32:39.473Z,532
2022-12-27T08:33:19.941Z,528
2022-12-27T08:34:00.465Z,524
2022-12-27T08:37:14.161Z,512
2022-12-27T08:37:54.793Z,520
2022-12-27T08:38:35.328Z,524
2022-12-27T08:39:15.869Z,524
2022-12-27T08:40:00.875Z,528
2022-12-27T08:40:36.841Z,532
2022-12-27T08:41:17.312Z,536
2022-12-27T08:41:57.775Z,540
2022-12-27T08:42:38.303Z,544
2022-12-27T08:43:18.754Z,548
2022-12-27T08:43:59.266Z,552
2022-12-27T08:44:39.750Z,556
2022-12-27T08:50:44.781Z,588
2022-12-27T08:51:33.052Z,588
2022-12-27T08:52:05.743Z,600
2022-12-27T08:52:46.317Z,612
2022-12-27T08:53:26.727Z,632
2022-12-27T08:54:07.227Z,632
2022-12-27T08:54:47.729Z,628
2022-12-27T08:55:28.245Z,628
2022-12-27T08:56:08.765Z,624
2022-12-27T08:56:49.361Z,624
2022-12-27T08:57:29.747Z,620
2022-12-27T09:03:34.685Z,628
2022-12-27T09:04:15.120Z,624
2022-12-27T09:04:55.644Z,632
2022-12-27T09:05:41.333Z,664
2022-12-27T09:06:16.698Z,676
2022-12-27T09:06:57.208Z,672
2022-12-27T09:07:37.706Z,660
2022-12-27T09:08:18.295Z,652
2022-12-27T09:11:47.728Z,648
2022-12-27T09:12:28.237Z,644
2022-12-27T09:13:08.765Z,628
2022-12-27T09:13:49.239Z,656
2022-12-27T09:14:29.766Z,620
2022-12-27T09:15:10.276Z,536
2022-12-27T09:21:55.214Z,672
2022-12-27T09:22:35.711Z,676
2022-12-27T09:23:16.219Z,672
2022-12-27T09:23:56.861Z,676
2022-12-27T09:24:37.401Z,676
2022-12-27T09:25:17.925Z,680
2022-12-27T09:25:58.450Z,676
2022-12-27T09:26:38.888Z,572
2022-12-27T09:27:19.416Z,624
2022-12-27T09:27:59.910Z,612
2022-12-27T09:35:25.598Z,696
2022-12-27T09:36:06.116Z,700
2022-12-27T09:36:46.614Z,700
2022-12-27T09:37:27.116Z,708
2022-12-27T09:38:07.630Z,708
2022-12-27T09:38:48.108Z,712
2022-12-27T09:39:28.609Z,712
2022-12-27T09:40:09.091Z,716
2022-12-27T09:40:49.626Z,716
2022-12-27T09:42:25.895Z,716
2022-12-27T09:48:15.123Z,732
2022-12-27T09:48:55.604Z,732
2022-12-27T09:49:36.157Z,732
2022-12-27T09:50:16.615Z,732
2022-12-27T09:50:57.158Z,732
2022-12-27T09:51:37.661Z,732
2022-12-27T09:52:18.199Z,732
2022-12-27T09:52:58.691Z,732
2022-12-27T09:53:39.356Z,736
2022-12-27T09:54:19.739Z,736
2022-12-27T09:55:04.618Z,740
2022-12-27T10:01:45.333Z,752
2022-12-27T10:02:25.872Z,760
2022-12-27T10:03:06.230Z,760
2022-12-27T10:03:46.697Z,760
2022-12-27T10:04:39.407Z,760
2022-12-27T10:05:20.121Z,760
2022-12-27T10:05:52.004Z,752
2022-12-27T10:06:28.690Z,756
2022-12-27T10:07:09.183Z,756
2022-12-27T10:07:49.699Z,748
2022-12-27T10:08:30.233Z,744
2022-12-27T10:13:09.956Z,756
2022-12-27T10:13:50.450Z,716
2022-12-27T10:14:31.244Z,672
2022-12-27T10:15:11.796Z,704
2022-12-27T10:15:52.416Z,752
2022-12-27T10:16:32.810Z,744
2022-12-27T10:19:47.414Z,812
2022-12-27T10:20:27.724Z,816
2022-12-27T10:21:08.174Z,672
2022-12-27T10:21:48.703Z,800
2022-12-27T10:22:29.171Z,716
2022-12-27T10:26:03.601Z,900
2022-12-27T10:26:44.342Z,812
2022-12-27T10:27:24.821Z,756
2022-12-27T10:28:05.446Z,756
2022-12-27T10:28:45.905Z,772
2022-12-27T10:31:59.665Z,704
2022-12-27T10:32:40.091Z,672
2022-12-27T10:33:20.720Z,648
2022-12-27T10:34:02.990Z,624
2022-12-27T10:34:41.674Z,608
2022-12-27T10:35:22.147Z,612
2022-12-27T10:36:02.636Z,628
2022-12-27T10:36:43.183Z,640
2022-12-27T10:37:23.669Z,672
2022-12-27T10:38:04.121Z,700
2022-12-27T10:38:44.628Z,728
2022-12-27T10:44:09.652Z,732
2022-12-27T10:44:50.209Z,684
2022-12-27T10:45:30.659Z,660
2022-12-27T10:46:11.280Z,648
2022-12-27T10:46:51.830Z,688
2022-12-27T10:47:32.305Z,748
2022-12-27T10:48:12.831Z,808
2022-12-27T10:49:19.907Z,820
2022-12-27T10:49:33.983Z,860
2022-12-27T10:50:14.435Z,920
2022-12-27T10:56:59.615Z,792
2022-12-27T10:57:40.070Z,832
2022-12-27T10:58:20.548Z,956
2022-12-27T10:59:01.070Z,1024
2022-12-27T10:59:41.595Z,1060
2022-12-27T11:00:22.333Z,1080
2022-12-27T11:01:02.914Z,1092
2022-12-27T11:01:43.463Z,1068
2022-12-27T11:02:24.082Z,1048
2022-12-27T11:03:04.788Z,1036
2022-12-27T11:08:29.584Z,860
2022-12-27T11:09:10.030Z,988
2022-12-27T11:09:51.421Z,936
2022-12-27T11:10:31.077Z,892
2022-12-27T11:11:11.678Z,856
2022-12-27T11:11:52.743Z,756
2022-12-27T11:12:33.308Z,664
2022-12-27T11:13:13.756Z,652
2022-12-27T11:13:54.345Z,604
2022-12-27T11:20:39.935Z,580
2022-12-27T11:21:27.424Z,568
2022-12-27T11:22:00.997Z,548
2022-12-27T11:22:41.575Z,564
2022-12-27T11:23:22.037Z,616
2022-12-27T11:24:02.704Z,624
2022-12-27T11:24:43.146Z,640
2022-12-27T11:25:23.653Z,636
2022-12-27T11:26:04.312Z,620
2022-12-27T11:30:09.773Z,556
2022-12-27T11:30:50.309Z,576
2022-12-27T11:31:30.861Z,596
2022-12-27T11:32:11.331Z,604
2022-12-27T11:32:51.916Z,644
2022-12-27T11:33:32.419Z,652
2022-12-27T11:34:12.961Z,632
2022-12-27T11:34:53.615Z,628
2022-12-27T11:35:34.086Z,592
2022-12-27T11:36:14.684Z,548
2022-12-27T11:41:04.757Z,736
2022-12-27T11:41:45.428Z,776
2022-12-27T11:42:25.907Z,756
2022-12-27T11:43:06.391Z,728
2022-12-27T11:43:46.985Z,748
2022-12-27T11:44:27.439Z,788
2022-12-27T11:45:07.951Z,672
2022-12-27T11:45:48.484Z,700
2022-12-27T11:46:29.000Z,684
2022-12-27T11:47:09.465Z,724
2022-12-27T11:51:29.551Z,576
2022-12-27T11:52:11.202Z,552
2022-12-27T11:52:51.460Z,584
2022-12-27T11:53:31.882Z,572
2022-12-27T11:54:12.410Z,560
2022-12-27T12:32:19.337Z,628
2022-12-27T12:32:59.163Z,640
2022-12-27T12:33:39.696Z,636
2022-12-27T12:34:20.234Z,628
2022-12-27T12:35:00.883Z,612
2022-12-27T12:35:41.401Z,612
2022-12-27T12:36:21.941Z,596
2022-12-27T12:37:02.455Z,592
2022-12-27T12:37:42.987Z,588
2022-12-27T12:38:23.466Z,604
2022-12-27T12:44:28.450Z,668
2022-12-27T12:45:08.934Z,664
2022-12-27T12:45:49.476Z,672
2022-12-27T12:46:30.057Z,676
2022-12-27T12:47:10.649Z,640
2022-12-27T12:47:51.275Z,620
2022-12-27T12:48:31.794Z,632
2022-12-27T12:49:12.255Z,640
2022-12-27T12:49:53.934Z,632
2022-12-27T12:55:58.693Z,596
2022-12-27T12:56:39.282Z,608
2022-12-27T12:57:19.766Z,628
2022-12-27T12:58:00.498Z,660
2022-12-27T12:58:42.127Z,664
2022-12-27T12:59:22.689Z,648
2022-12-27T13:00:03.181Z,652
2022-12-27T13:06:48.818Z,680
2022-12-27T13:07:30.357Z,664
2022-12-27T13:08:09.820Z,676
2022-12-27T13:08:50.311Z,684
2022-12-27T13:09:31.029Z,676
2022-12-27T13:10:11.526Z,672
2022-12-27T13:10:52.054Z,672
2022-12-27T13:11:32.783Z,672
2022-12-27T13:12:13.323Z,676
2022-12-27T13:18:58.410Z,724
2022-12-27T13:19:38.906Z,732
2022-12-27T13:20:19.451Z,740
2022-12-27T13:20:59.954Z,744
2022-12-27T13:21:40.461Z,748
2022-12-27T13:22:20.997Z,744
2022-12-27T13:23:01.566Z,752
2022-12-27T13:23:42.011Z,756
2022-12-27T13:24:26.260Z,760
2022-12-27T13:25:03.313Z,772
2022-12-27T13:31:08.413Z,744
2022-12-27T13:31:48.843Z,736
2022-12-27T13:32:29.519Z,736
2022-12-27T13:33:10.116Z,728
2022-12-27T13:33:50.620Z,728
2022-12-27T13:34:31.117Z,724
2022-12-27T13:35:14.945Z,716
2022-12-27T13:35:52.608Z,712
2022-12-27T13:40:07.619Z,680
2022-12-27T13:40:48.158Z,680
2022-12-27T13:41:30.851Z,688
2022-12-27T13:42:09.186Z,672
2022-12-27T13:42:51.199Z,656
2022-12-27T13:43:31.736Z,640
2022-12-27T13:44:12.294Z,628
2022-12-27T13:48:22.558Z,552
2022-12-27T13:49:02.824Z,536
2022-12-27T13:49:43.410Z,524
2022-12-27T13:50:23.860Z,516
2022-12-27T13:51:04.349Z,508
2022-12-27T13:51:45.067Z,500
2022-12-27T13:52:25.526Z,500
2022-12-27T13:53:06.061Z,496
2022-12-27T13:59:11.523Z,452
2022-12-27T13:59:51.878Z,452
2022-12-27T14:00:32.416Z,440
2022-12-27T14:01:13.271Z,424
2022-12-27T14:05:22.490Z,388
2022-12-27T14:06:10.053Z,396
2022-12-27T14:07:32.014Z,400
2022-12-27T14:08:12.712Z,396
2022-12-27T14:08:53.228Z,384
2022-12-27T14:09:33.738Z,380
2022-12-27T14:10:14.275Z,372
2022-12-27T14:11:00.663Z,360
2022-12-27T14:11:35.371Z,340
2022-12-27T14:12:15.937Z,340
2022-12-27T14:19:41.650Z,240
2022-12-27T14:20:22.193Z,228
2022-12-27T14:21:02.709Z,216
2022-12-27T14:21:44.233Z,216
2022-12-27T14:22:24.842Z,212
2022-12-27T14:23:05.383Z,204
2022-12-27T14:23:45.876Z,204
2022-12-27T14:24:26.656Z,200
2022-12-27T14:30:31.877Z,128
2022-12-27T14:31:12.510Z,124
2022-12-27T14:31:52.920Z,120
2022-12-27T14:32:33.493Z,120
2022-12-27T14:33:14.001Z,120
2022-12-27T14:33:54.577Z,116
2022-12-27T14:34:35.071Z,120
2022-12-27T14:35:15.630Z,120
2022-12-27T14:35:56.130Z,116
2022-12-27T14:36:36.724Z,108
2022-12-27T14:42:41.384Z,72
2022-12-27T14:43:21.955Z,72
2022-12-27T14:44:02.430Z,76
2022-12-27T14:44:42.960Z,80
2022-12-27T14:45:23.484Z,76
2022-12-27T14:46:03.991Z,80
2022-12-27T14:46:44.552Z,80
2022-12-27T14:47:25.016Z,80
2022-12-27T14:48:05.552Z,80
2022-12-27T14:48:46.023Z,76
2022-12-27T14:49:26.568Z,72
2022-12-27T14:56:11.624Z,76
2022-12-27T14:56:52.808Z,80
2022-12-27T14:57:34.143Z,80
2022-12-27T14:58:13.839Z,80
2022-12-27T14:58:54.360Z,84
2022-12-27T14:59:34.931Z,88
2022-12-27T15:00:15.834Z,92
2022-12-27T15:00:56.338Z,92
2022-12-27T15:07:41.317Z,120
2022-12-27T15:08:21.813Z,136
2022-12-27T15:09:06.925Z,164
2022-12-27T15:09:42.800Z,188
2022-12-27T15:10:26.031Z,200
2022-12-27T15:11:03.786Z,188
2022-12-27T15:11:44.277Z,168
2022-12-27T15:12:24.771Z,168
2022-12-27T15:13:05.323Z,152
2022-12-27T15:13:45.995Z,148
2022-12-27T15:14:26.430Z,136
2022-12-27T15:21:11.646Z,64
2022-12-27T15:21:52.102Z,56
2022-12-27T15:22:32.626Z,56
2022-12-27T15:23:13.144Z,48
2022-12-27T15:23:53.603Z,48
2022-12-27T15:24:34.113Z,44
2022-12-27T15:25:14.592Z,40
2022-12-27T15:25:55.111Z,40
2022-12-27T15:26:35.657Z,36
2022-12-27T15:27:19.451Z,36
2022-12-27T15:27:56.672Z,32
2022-12-27T15:34:01.461Z,20
2022-12-27T15:34:41.943Z,20
2022-12-27T15:35:22.479Z,20
2022-12-27T15:36:02.960Z,16
2022-12-27T15:36:43.551Z,20
2022-12-27T15:37:24.070Z,12
2022-12-27T15:38:04.562Z,12
2022-12-27T15:38:49.616Z,12
2022-12-27T15:39:25.561Z,12
2022-12-27T15:40:06.049Z,12
2022-12-27T15:40:46.528Z,8
2022-12-27T15:47:31.767Z,4
2022-12-27T15:48:12.246Z,4
2022-12-27T15:48:53.729Z,0
2022-12-27T15:49:33.301Z,4
2022-12-27T15:50:13.783Z,4
2022-12-27T15:50:54.295Z,4
2022-12-27T15:51:34.802Z,0
2022-12-27T15:52:15.277Z,4
2022-12-27T15:52:55.816Z,4
2022-12-27T15:53:36.300Z,0
2022-12-27T16:00:21.387Z,0
2022-12-27T16:01:01.980Z,0
2022-12-27T16:01:42.540Z,0
2022-12-27T16:02:22.997Z,0
2022-12-27T16:03:03.700Z,0
2022-12-27T16:03:44.020Z,0
2022-12-27T16:05:05.031Z,0
2022-12-27T16:05:45.510Z,0
2022-12-27T16:06:26.005Z,0
2022-12-27T16:13:51.598Z,0
2022-12-27T16:14:32.151Z,0
2022-12-27T16:15:12.624Z,0
2022-12-27T16:15:53.233Z,0
2022-12-27T16:16:33.661Z,0
2022-12-27T16:17:14.133Z,0
2022-12-27T16:17:54.677Z,0
2022-12-27T16:18:35.093Z,0
2022-12-27T16:19:15.628Z,0
2022-12-27T16:19:56.112Z,0
2022-12-27T16:27:21.820Z,0
2022-12-27T16:28:02.276Z,0
2022-12-27T16:28:42.761Z,0
2022-12-27T16:29:23.297Z,0
2022-12-27T16:30:03.790Z,0
2022-12-27T16:30:44.796Z,0
2022-12-27T16:31:25.367Z,0
2022-12-27T16:32:05.761Z,0
2022-12-27T16:32:46.267Z,0
2022-12-27T16:39:31.452Z,0
2022-12-27T16:40:11.920Z,0
2022-12-27T16:40:52.614Z,0
2022-12-27T16:41:33.089Z,0
2022-12-27T16:42:13.616Z,0
2022-12-27T16:42:54.126Z,0
2022-12-27T16:43:34.618Z,0
2022-12-27T16:44:15.190Z,0
2022-12-27T16:44:55.641Z,0
2022-12-27T16:45:36.747Z,0
2022-12-27T16:51:41.386Z,0
2022-12-27T16:52:21.888Z,0
2022-12-27T16:53:02.471Z,0
2022-12-27T16:53:42.943Z,0
2022-12-27T16:54:23.457Z,0
2022-12-27T16:55:04.020Z,0
2022-12-27T16:55:44.447Z,0
2022-12-27T16:56:24.978Z,0
2022-12-27T16:57:05.430Z,0
2022-12-27T16:57:46.031Z,0
2022-12-27T16:58:26.478Z,0
2022-12-27T17:05:11.618Z,0
2022-12-27T17:06:22.050Z,0
2022-12-27T17:06:33.821Z,0
2022-12-27T17:07:13.091Z,0
2022-12-27T17:07:53.558Z,0
2022-12-27T17:08:34.117Z,0
2022-12-27T17:09:14.712Z,0
2022-12-27T17:09:55.138Z,0
2022-12-27T17:10:35.695Z,0
2022-12-27T17:11:16.179Z,0
2022-12-27T17:11:56.774Z,0
2022-12-27T17:18:41.726Z,0
2022-12-27T17:19:22.249Z,0
2022-12-27T17:20:03.037Z,0
2022-12-27T17:20:43.274Z,0
2022-12-27T17:21:29.583Z,0
2022-12-27T17:22:04.311Z,0
2022-12-27T17:22:44.815Z,0
2022-12-27T17:23:25.300Z,0
2022-12-27T17:24:05.785Z,0
2022-12-27T17:24:46.308Z,0
2022-12-27T17:31:31.399Z,0
2022-12-27T17:32:11.886Z,0
2022-12-27T17:32:52.379Z,0
2022-12-27T17:33:32.846Z,0
2022-12-27T17:34:13.378Z,0
2022-12-27T17:34:53.953Z,0
2022-12-27T17:35:34.377Z,0
2022-12-27T17:36:14.909Z,0
2022-12-27T17:36:55.383Z,0
2022-12-27T17:37:35.881Z,0
2022-12-27T17:38:16.397Z,0
2022-12-27T17:45:01.441Z,0
2022-12-27T17:45:42.008Z,0
2022-12-27T17:46:22.556Z,0
2022-12-27T17:47:03.074Z,0
2022-12-27T17:47:43.556Z,0
2022-12-27T17:48:24.125Z,0
2022-12-27T17:49:04.591Z,0
2022-12-27T17:49:45.095Z,0
2022-12-27T17:50:25.623Z,0
2022-12-27T17:51:06.114Z,0
2022-12-27T17:51:46.606Z,0
2022-12-27T18:34:05.048Z,0
2022-12-27T18:34:45.514Z,0
2022-12-27T18:35:26.092Z,0
2022-12-27T18:36:06.541Z,0
2022-12-27T18:36:47.111Z,0
2022-12-27T18:37:27.609Z,0
2022-12-27T18:38:08.089Z,0
2022-12-27T18:38:48.654Z,0
2022-12-27T18:39:29.069Z,0
2022-12-27T18:40:09.560Z,0
2022-12-27T18:47:35.055Z,0
2022-12-27T18:48:16.423Z,0
2022-12-27T18:48:56.939Z,0
2022-12-27T18:49:37.457Z,0
2022-12-27T18:50:17.930Z,0
2022-12-27T18:50:58.428Z,0
2022-12-27T18:51:38.902Z,0
2022-12-27T18:52:19.404Z,0
2022-12-27T18:52:59.856Z,0
2022-12-27T18:59:45.019Z,0
2022-12-27T19:00:25.522Z,0
2022-12-27T19:01:06.147Z,0
2022-12-27T19:01:46.689Z,0
2022-12-27T19:02:27.195Z,0
2022-12-27T19:03:07.581Z,0
2022-12-27T19:03:48.102Z,0
2022-12-27T19:04:28.610Z,0
2022-12-27T19:05:09.126Z,0
2022-12-27T19:05:49.671Z,0
2022-12-27T19:12:34.783Z,0
2022-12-27T19:13:15.425Z,0
2022-12-27T19:13:55.950Z,0
2022-12-27T19:14:36.461Z,0
2022-12-27T19:15:16.949Z,0
2022-12-27T19:15:57.522Z,0
2022-12-27T19:17:18.569Z,0
2022-12-27T19:17:59.064Z,0
2022-12-27T19:18:39.568Z,0
2022-12-27T19:25:24.920Z,0
2022-12-27T19:26:05.423Z,0
2022-12-27T19:26:46.170Z,0
2022-12-27T19:27:26.625Z,0
2022-12-27T19:28:07.162Z,0
2022-12-27T19:28:47.706Z,0
2022-12-27T19:29:28.237Z,0
2022-12-27T19:30:08.757Z,0
2022-12-27T19:30:49.598Z,0
2022-12-27T19:31:30.137Z,0
2022-12-27T19:37:34.874Z,0
2022-12-27T19:38:15.371Z,0
2022-12-27T19:38:55.877Z,0
2022-12-27T19:39:36.579Z,0
2022-12-27T19:40:17.880Z,0
2022-12-27T19:42:31.628Z,0
2022-12-27T19:43:12.087Z,0
2022-12-27T19:43:52.586Z,0
2022-12-27T19:44:33.080Z,0
2022-12-27T19:45:13.569Z,0
2022-12-27T19:45:54.182Z,0
2022-12-27T19:46:34.624Z,0
2022-12-27T19:47:15.111Z,0
2022-12-27T19:47:55.540Z,0
2022-12-27T19:48:36.777Z,0
2022-12-27T19:54:41.150Z,0
2022-12-27T19:55:21.643Z,0
2022-12-27T19:56:02.135Z,0
2022-12-27T19:56:42.602Z,0
2022-12-27T19:57:23.084Z,0
2022-12-27T19:58:03.581Z,0
2022-12-27T19:58:44.152Z,0
2022-12-27T19:59:25.288Z,0
2022-12-27T20:00:10.386Z,0
2022-12-27T20:00:45.685Z,0
2022-12-27T20:01:26.263Z,0
2022-12-27T20:08:11.068Z,0
2022-12-27T20:08:51.506Z,0
2022-12-27T20:09:32.028Z,0
2022-12-27T20:10:12.540Z,0
2022-12-27T20:10:53.033Z,0